Time;durP1;ratioP1;P1;durP2;ratioP2;P2;SDS_P1;SDS_P2;PMS_P1;PMS_P2;Temp;Humidity;BMP_temperature;BMP_pressure;BME280_temperature;BME280_humidity;BME280_pressure;Samples;Min_cycle;Max_cycle;Signal;HPM_P1;HPM_P2
2023/06/13 00:01:48;;;;;;;2.30;2.10;;;24.70;90.20;;;;;;5076171;28;20472;-85
2023/06/13 00:04:21;;;;;;;2.70;2.50;;;24.70;90.40;;;;;;5076575;28;20453;-85
2023/06/13 00:06:48;;;;;;;2.50;2.30;;;24.70;90.50;;;;;;5076926;28;20473;-85
2023/06/13 00:09:17;;;;;;;2.70;2.50;;;24.70;90.50;;;;;;5077733;28;20811;-85
2023/06/13 00:11:44;;;;;;;2.73;2.53;;;24.70;90.20;;;;;;5076965;28;20446;-85
2023/06/13 00:14:12;;;;;;;2.80;2.60;;;24.70;90.30;;;;;;5076259;28;20470;-86
2023/06/13 00:16:41;;;;;;;2.37;2.17;;;24.70;90.20;;;;;;5077345;28;20478;-85
2023/06/13 00:19:09;;;;;;;2.93;2.70;;;24.70;90.10;;;;;;5077137;28;20459;-85
2023/06/13 00:21:36;;;;;;;2.63;2.43;;;24.70;90.40;;;;;;5076859;28;20799;-85
2023/06/13 00:24:03;;;;;;;2.57;2.37;;;24.70;90.40;;;;;;5076980;28;20441;-85
2023/06/13 00:26:30;;;;;;;3.27;2.97;;;24.70;90.70;;;;;;5080215;28;20432;-86
2023/06/13 00:28:57;;;;;;;2.60;2.40;;;24.80;91.60;;;;;;5076270;28;20443;-85
2023/06/13 00:31:28;;;;;;;2.90;2.70;;;24.70;91.70;;;;;;5075362;28;20438;-85
2023/06/13 00:33:57;;;;;;;2.40;2.27;;;24.70;92.60;;;;;;5076257;28;20471;-85
2023/06/13 00:36:25;;;;;;;2.90;2.70;;;24.70;93.20;;;;;;5076888;28;20512;-85
2023/06/13 00:38:52;;;;;;;2.77;2.57;;;24.60;92.70;;;;;;5075907;28;20473;-85
2023/06/13 00:41:19;;;;;;;2.50;2.30;;;24.80;92.30;;;;;;5078286;28;20538;-85
2023/06/13 00:43:46;;;;;;;2.83;2.63;;;24.60;93.40;;;;;;5075792;28;20538;-85
2023/06/13 00:46:14;;;;;;;2.50;2.30;;;24.70;93.00;;;;;;5076218;28;20933;-85
2023/06/13 00:48:43;;;;;;;2.60;2.40;;;24.70;92.60;;;;;;5075503;28;21091;-85
2023/06/13 00:51:12;;;;;;;2.90;2.70;;;24.60;92.30;;;;;;5075896;28;20439;-84
2023/06/13 00:53:40;;;;;;;3.03;2.83;;;24.70;92.20;;;;;;5076172;28;20446;-84
2023/06/13 00:56:08;;;;;;;2.60;2.40;;;24.60;91.90;;;;;;5077172;28;20492;-83
2023/06/13 00:58:35;;;;;;;2.80;2.60;;;24.50;99.90;;;;;;5074932;28;20471;-83
2023/06/13 01:01:03;;;;;;;2.47;2.30;;;24.70;90.60;;;;;;5076742;28;20448;-84
2023/06/13 01:03:33;;;;;;;3.23;3.03;;;24.70;90.50;;;;;;5076076;28;20457;-84
2023/06/13 01:06:00;;;;;;;2.60;2.40;;;24.60;90.40;;;;;;5074558;28;21005;-84
2023/06/13 01:08:29;;;;;;;2.83;2.63;;;24.60;90.30;;;;;;5075086;28;20895;-83
2023/06/13 01:11:03;;;;;;;2.50;2.30;;;24.80;90.20;;;;;;5074532;28;20524;-84
2023/06/13 01:13:35;;;;;;;2.70;2.50;;;24.60;90.00;;;;;;5074524;28;20443;-84
2023/06/13 01:16:06;;;;;;;3.07;2.77;;;24.60;90.00;;;;;;5075002;28;20485;-84
2023/06/13 01:18:39;;;;;;;3.10;2.90;;;24.60;90.00;;;;;;5074873;28;20931;-96
2023/06/13 01:21:08;;;;;;;2.50;2.33;;;24.60;90.10;;;;;;5074464;28;20434;-85
2023/06/13 01:23:45;;;;;;;2.80;2.60;;;24.60;90.20;;;;;;5074155;28;20446;-84
2023/06/13 01:26:15;;;;;;;2.43;2.33;;;24.60;90.30;;;;;;5074372;28;20447;-85
2023/06/13 01:28:45;;;;;;;2.37;2.23;;;24.60;90.50;;;;;;5074480;28;20442;-84
2023/06/13 01:31:16;;;;;;;3.20;3.00;;;24.60;90.90;;;;;;5074308;28;20457;-85
2023/06/13 01:33:43;;;;;;;2.57;2.37;;;24.60;91.30;;;;;;5074480;28;20971;-85
2023/06/13 01:36:10;;;;;;;2.50;2.30;;;24.60;92.00;;;;;;5074140;28;20831;-84
2023/06/13 01:38:37;;;;;;;1.90;1.80;;;24.60;92.20;;;;;;5074069;28;20979;-84
2023/06/13 01:41:04;;;;;;;2.63;2.43;;;24.60;93.00;;;;;;5074103;28;20458;-84
2023/06/13 01:43:31;;;;;;;2.93;2.73;;;24.60;93.90;;;;;;5073674;28;20445;-84
2023/06/13 01:46:06;;;;;;;2.67;2.47;;;24.50;98.50;;;;;;5073865;28;20465;-84
2023/06/13 01:48:38;;;;;;;2.43;2.33;;;;;;;;;;5074306;28;20931;-84
2023/06/13 01:51:12;;;;;;;2.33;2.13;;;24.50;99.80;;;;;;5073975;28;20445;-84
2023/06/13 01:53:43;;;;;;;2.30;2.20;;;24.60;90.20;;;;;;5073966;28;20434;-84
2023/06/13 01:56:19;;;;;;;2.10;2.00;;;24.60;90.10;;;;;;5073660;28;20840;-84
2023/06/13 01:58:51;;;;;;;2.60;2.40;;;24.60;89.90;;;;;;5073607;28;20447;-83
2023/06/13 02:01:21;;;;;;;2.67;2.47;;;24.60;89.80;;;;;;5073731;28;20788;-84
2023/06/13 02:03:47;;;;;;;2.87;2.67;;;24.50;89.50;;;;;;5073592;28;20483;-84
2023/06/13 02:06:15;;;;;;;2.53;2.33;;;24.50;90.00;;;;;;5073516;28;20482;-84
2023/06/13 02:08:43;;;;;;;2.70;2.50;;;24.50;90.70;;;;;;5073260;28;20967;-84
2023/06/13 02:11:10;;;;;;;2.40;2.20;;;24.50;91.10;;;;;;5073463;28;20453;-84
2023/06/13 02:13:37;;;;;;;3.00;2.70;;;24.50;91.70;;;;;;5073549;28;20443;-84
2023/06/13 02:16:04;;;;;;;2.37;2.17;;;24.50;92.60;;;;;;5073395;28;20449;-83
2023/06/13 02:18:32;;;;;;;2.03;1.83;;;;;;;;;;5073114;28;20454;-84
2023/06/13 02:20:59;;;;;;;2.70;2.50;;;;;;;;;;5073390;28;20446;-83
2023/06/13 02:23:26;;;;;;;2.90;2.70;;;;;;;;;;5073243;28;20429;-83
2023/06/13 02:25:53;;;;;;;2.40;2.20;;;;;;;;;;5073173;28;20447;-85
2023/06/13 02:28:21;;;;;;;2.50;2.30;;;;;;;;;;5073261;28;20444;-84
2023/06/13 02:30:48;;;;;;;2.97;2.70;;;;;;;;;;5073345;28;20446;-84
2023/06/13 02:33:15;;;;;;;2.33;2.20;;;;;;;;;;5073073;28;20440;-84
2023/06/13 02:35:43;;;;;;;2.60;2.40;;;;;;;;;;5073157;28;20442;-84
2023/06/13 02:38:11;;;;;;;2.80;2.60;;;;;;;;;;5072874;28;20496;-84
2023/06/13 02:40:38;;;;;;;2.50;2.30;;;;;;;;;;5073085;28;20850;-85
2023/06/13 02:43:05;;;;;;;2.80;2.60;;;;;;;;;;5073104;28;20499;-84
2023/06/13 02:45:33;;;;;;;2.33;2.23;;;;;;;;;;5072867;28;20452;-83
2023/06/13 02:48:00;;;;;;;2.73;2.53;;;;;;;;;;5073082;28;20440;-84
2023/06/13 02:50:28;;;;;;;2.50;2.30;;;;;;;;;;5073174;28;20449;-84
2023/06/13 02:52:56;;;;;;;2.50;2.30;;;;;;;;;;5073027;28;20429;-84
2023/06/13 02:55:24;;;;;;;2.87;2.40;;;;;;;;;;5073194;28;20448;-84
2023/06/13 02:57:51;;;;;;;2.73;2.50;;;;;;;;;;5073142;28;20512;-96
2023/06/13 03:00:19;;;;;;;2.43;2.23;;;;;;;;;;5073066;28;20450;-84
2023/06/13 03:02:46;;;;;;;3.60;2.90;;;;;;;;;;5072768;28;20439;-84
2023/06/13 03:05:15;;;;;;;2.23;2.13;;;;;;;;;;5072699;28;20997;-84
2023/06/13 03:07:46;;;;;;;2.73;2.53;;;;;;;;;;5072678;28;20458;-83
2023/06/13 03:10:15;;;;;;;2.30;2.20;;;;;;;;;;5073180;28;20887;-84
2023/06/13 03:12:42;;;;;;;2.97;2.77;;;;;;;;;;5072904;28;20446;-85
2023/06/13 03:15:11;;;;;;;2.93;2.73;;;;;;;;;;5072974;28;20449;-84
2023/06/13 03:17:38;;;;;;;2.53;2.33;;;;;;;;;;5072528;28;20520;-84
2023/06/13 03:20:06;;;;;;;2.40;2.17;;;;;;;;;;5072695;28;20438;-83
2023/06/13 03:22:33;;;;;;;2.77;2.57;;;;;;;;;;5072796;28;20852;-84
2023/06/13 03:25:04;;;;;;;2.37;2.17;;;;;;;;;;5072724;28;20521;-84
2023/06/13 03:27:33;;;;;;;3.03;2.83;;;;;;;;;;5072830;28;20538;-84
2023/06/13 03:30:00;;;;;;;2.70;2.50;;;;;;;;;;5075071;28;20444;-84
2023/06/13 03:32:27;;;;;;;2.30;2.10;;;;;;;;;;5076558;28;21038;-84
2023/06/13 03:34:55;;;;;;;2.70;2.50;;;;;;;;;;5076653;28;20927;-84
2023/06/13 03:37:22;;;;;;;2.30;2.20;;;;;;;;;;5076454;28;20483;-84
2023/06/13 03:39:50;;;;;;;2.87;2.67;;;;;;;;;;5076249;28;20449;-84
2023/06/13 03:42:17;;;;;;;2.70;2.50;;;;;;;;;;5076286;28;20441;-93
2023/06/13 03:44:48;;;;;;;3.10;2.90;;;;;;;;;;5076171;28;20530;-83
2023/06/13 03:47:16;;;;;;;2.37;2.13;;;;;;;;;;5076146;28;20839;-95
2023/06/13 03:49:43;;;;;;;4.63;2.40;;;;;;;;;;5076129;28;20437;-84
2023/06/13 03:52:11;;;;;;;3.00;2.63;;;;;;;;;;5076261;28;20796;-84
2023/06/13 03:54:38;;;;;;;2.77;2.57;;;;;;;;;;5076242;28;20438;-84
2023/06/13 03:57:06;;;;;;;2.40;2.20;;;;;;;;;;5076089;28;20481;-84
2023/06/13 03:59:34;;;;;;;2.60;2.40;;;;;;;;;;5075969;28;20519;-84
2023/06/13 04:02:03;;;;;;;2.70;2.50;;;;;;;;;;5075823;28;20518;-84
2023/06/13 04:04:32;;;;;;;2.70;2.50;;;;;;;;;;5075850;28;20437;-84
2023/06/13 04:07:04;;;;;;;3.07;2.87;;;;;;;;;;5075890;28;20467;-84
2023/06/13 04:09:31;;;;;;;2.30;2.10;;;;;;;;;;5076064;28;20446;-84
2023/06/13 04:11:58;;;;;;;2.50;2.30;;;;;;;;;;5075804;28;20446;-84
2023/06/13 04:14:25;;;;;;;2.13;1.93;;;;;;;;;;5076384;28;20441;-88
2023/06/13 04:16:53;;;;;;;4.20;3.90;;;;;;;;;;5075670;28;20488;-84
2023/06/13 04:19:23;;;;;;;4.47;4.07;;;;;;;;;;5075640;28;20933;-85
2023/06/13 04:21:52;;;;;;;4.80;4.40;;;;;;;;;;5075557;28;20781;-87
2023/06/13 04:24:20;;;;;;;7.90;4.87;;;;;;;;;;5075489;28;20463;-84
2023/06/13 04:26:48;;;;;;;6.47;4.70;;;;;;;;;;5075664;28;20440;-84
2023/06/13 04:29:18;;;;;;;4.93;4.43;;;;;;;;;;5075307;28;20438;-84
2023/06/13 04:31:46;;;;;;;5.10;4.60;;;;;;;;;;5075088;28;20471;-84
2023/06/13 04:34:14;;;;;;;5.27;4.60;;;;;;;;;;5075219;28;20473;-84
2023/06/13 04:36:44;;;;;;;5.00;4.60;;;;;;;;;;5073875;28;20434;-85
2023/06/13 04:39:12;;;;;;;5.37;4.40;;;;;;;;;;5074687;28;20524;-90
2023/06/13 04:41:43;;;;;;;4.77;4.37;;;;;;;;;;5073877;28;20445;-82
2023/06/13 04:44:10;;;;;;;5.57;5.03;;;;;;;;;;5076734;28;20577;-85
2023/06/13 04:46:40;;;;;;;5.53;4.43;;;;;;;;;;5075318;28;20468;-86
2023/06/13 04:49:08;;;;;;;8.23;4.30;;;;;;;;;;5074999;28;20551;-92
2023/06/13 04:51:35;;;;;;;5.30;4.80;;;;;;;;;;5074982;28;20449;-86
2023/06/13 04:57:08;;;;;;;5.37;4.87;;;;;;;;;;5076337;28;20443;-88
2023/06/13 04:59:36;;;;;;;9.23;4.20;;;;;;;;;;5074585;28;20500;-85
2023/06/13 05:02:04;;;;;;;7.30;4.37;;;;;;;;;;5073902;28;20444;-87
2023/06/13 05:04:31;;;;;;;5.43;4.40;;;;;;;;;;5073438;28;20444;-88
2023/06/13 05:06:59;;;;;;;4.90;4.50;;;;;;;;;;5060267;28;20550;-86
2023/06/13 05:09:27;;;;;;;5.40;4.90;;;;;;;;;;5065403;28;20449;-94
2023/06/13 05:12:31;;;;;;;6.27;5.43;;;;;;;;;;5059580;28;20790;-92
2023/06/13 05:14:59;;;;;;;9.60;4.60;;;;;;;;;;5056042;28;20441;-91
2023/06/13 05:17:27;;;;;;;4.60;4.20;;;;;;;;;;5060838;28;20548;-94
2023/06/13 05:20:04;;;;;;;5.23;4.73;;;;;;;;;;5061818;28;20437;-94
2023/06/13 05:22:32;;;;;;;5.37;4.87;;;;;;;;;;5059553;28;20436;-93
2023/06/13 05:25:00;;;;;;;4.77;4.37;;;;;;;;;;5056226;28;20449;-93
2023/06/13 05:27:27;;;;;;;8.23;4.00;;;;;;;;;;5059571;28;20438;-94
2023/06/13 05:29:54;;;;;;;5.13;4.37;;;;;;;;;;5059374;28;20862;-90
2023/06/13 05:32:23;;;;;;;5.83;4.73;;;;;;;;;;5055449;28;20449;-93
2023/06/13 05:34:50;;;;;;;4.20;3.90;;;;;;;;;;5059321;28;20455;-91
2023/06/13 05:37:17;;;;;;;4.63;4.20;;;;;;;;;;5058619;28;20480;-94
2023/06/13 05:39:44;;;;;;;4.97;4.57;;;;;;;;;;5060531;28;20488;-85
2023/06/13 05:42:13;;;;;;;5.50;4.07;;;;;;;;;;5073457;28;20451;-86
2023/06/13 05:44:40;;;;;;;4.80;4.40;;;;;;;;;;5073941;28;20445;-85
2023/06/13 05:47:08;;;;;;;5.20;3.80;;;;;;;;;;5073898;28;20527;-81
2023/06/13 05:49:37;;;;;;;5.97;3.70;;;;;;;;;;5073522;28;20437;-90
2023/06/13 05:52:04;;;;;;;4.93;4.03;;;;;;;;;;5071638;28;20443;-87
2023/06/13 05:54:32;;;;;;;5.30;4.53;;;;;;;;;;5073645;28;20444;-87
2023/06/13 05:57:00;;;;;;;4.13;3.73;;;;;;;;;;5073558;28;20429;-87
2023/06/13 05:59:27;;;;;;;6.40;3.93;;;;;;;;;;5073574;28;20511;-87
2023/06/13 06:01:55;;;;;;;5.50;3.80;;;;;;;;;;5073547;28;20459;-88
2023/06/13 06:04:22;;;;;;;4.90;3.70;;;;;;;;;;5073514;28;20442;-88
2023/06/13 06:06:52;;;;;;;4.23;3.80;;;;;;;;;;5073201;28;21091;-88
2023/06/13 06:09:19;;;;;;;4.67;4.27;;;;;;;;;;5073561;28;20853;-88
2023/06/13 06:11:46;;;;;;;4.53;4.10;;;;;;;;;;5073559;28;20448;-88
2023/06/13 06:14:14;;;;;;;5.07;4.00;;;;;;;;;;5072306;28;20445;-87
2023/06/13 06:16:41;;;;;;;7.77;4.00;;;;;;;;;;5073310;28;20476;-87
2023/06/13 06:19:08;;;;;;;5.23;3.60;;;;;;;;;;5073195;28;20491;-88
2023/06/13 06:21:35;;;;;;;4.37;3.97;;;;;;;;;;5073273;28;20436;-88
2023/06/13 06:24:04;;;;;;;5.53;3.90;;;;;;;;;;5073160;28;20449;-87
2023/06/13 06:26:31;;;;;;;3.77;3.47;;;;;;;;;;5073190;28;20442;-87
2023/06/13 06:28:58;;;;;;;3.80;3.50;;;;;;;;;;5073259;28;20436;-87
2023/06/13 06:31:27;;;;;;;5.07;4.13;;;;;;;;;;5073083;28;20440;-87
2023/06/13 06:33:55;;;;;;;4.10;3.70;;;;;;;;;;5073279;28;20441;-87
2023/06/13 06:36:23;;;;;;;3.70;3.40;;;;;;;;;;5072883;28;20440;-88
2023/06/13 06:38:50;;;;;;;4.83;2.80;;;;;;;;;;5073186;28;20476;-87
2023/06/13 06:41:18;;;;;;;3.90;3.03;;;;;;;;;;5073175;28;20449;-87
2023/06/13 06:43:46;;;;;;;3.43;3.13;;;;;;;;;;5072893;28;20433;-87
2023/06/13 06:46:13;;;;;;;4.27;3.87;;;;;;;;;;5073018;28;20444;-87
2023/06/13 06:48:40;;;;;;;4.57;3.47;;;;;;;;;;5072818;28;20434;-87
2023/06/13 06:51:07;;;;;;;3.60;3.33;;;;;;;;;;5073038;28;20440;-88
2023/06/13 06:53:34;;;;;;;4.57;4.17;;;;;;;;;;5073015;28;20467;-88
2023/06/13 06:56:01;;;;;;;5.27;4.07;;;;;;;;;;5073099;28;20805;-88
2023/06/13 06:58:30;;;;;;;5.30;3.90;;;;;;;;;;5072721;28;20491;-88
2023/06/13 07:00:57;;;;;;;3.63;3.33;;;;;;;;;;5072601;28;20442;-88
2023/06/13 07:03:24;;;;;;;3.93;3.60;;;;;;;;;;5072626;28;20495;-87
2023/06/13 07:05:51;;;;;;;4.70;4.10;;;;;;;;;;5076608;28;20523;-88
2023/06/13 07:08:19;;;;;;;3.93;3.63;;;;;;;;;;5076884;28;20457;-88
2023/06/13 07:10:46;;;;;;;7.63;4.00;;;;;;;;;;5076868;28;20803;-88
2023/06/13 07:13:13;;;;;;;4.13;3.83;;;;;;;;;;5076890;28;20440;-88
2023/06/13 07:15:41;;;;;;;5.97;3.90;;;;;;;;;;5076699;28;20433;-88
2023/06/13 07:18:09;;;;;;;4.00;3.70;;;;;;;;;;5076735;28;20486;-88
2023/06/13 07:20:36;;;;;;;3.93;3.53;;;;;;;;;;5076886;28;20871;-88
2023/06/13 07:23:03;;;;;;;4.33;4.03;;;;;;;;;;5076496;28;20927;-88
2023/06/13 07:25:32;;;;;;;4.03;3.63;;;;;;;;;;5076583;28;20481;-87
2023/06/13 07:27:59;;;;;;;4.77;3.40;;;;;;;;;;5076607;28;20477;-88
2023/06/13 07:30:26;;;;;;;3.50;3.20;;;;;;;;;;5076662;28;20976;-88
2023/06/13 07:32:55;;;;;;;4.27;3.90;;;;;;;;;;5076423;28;20445;-87
2023/06/13 07:35:23;;;;;;;4.47;4.10;;;;;;;;;;5076532;28;20447;-87
2023/06/13 07:37:52;;;;;;;4.13;3.70;;;;;;;;;;5076415;28;20456;-87
2023/06/13 07:40:21;;;;;;;4.43;4.03;;;;;;;;;;5076536;28;20441;-88
2023/06/13 07:42:48;;;;;;;3.53;3.23;;;;;;;;;;5076538;28;20878;-87
2023/06/13 07:45:15;;;;;;;3.77;3.40;;;;;;;;;;5076308;28;20445;-87
2023/06/13 07:47:42;;;;;;;3.90;3.50;;;;;;;;;;5076163;28;20547;-87
2023/06/13 07:50:11;;;;;;;3.97;3.67;;;;;;;;;;5076265;28;20449;-87
2023/06/13 07:52:38;;;;;;;3.90;3.60;;;;;;;;;;5076022;28;20447;-87
2023/06/13 07:55:05;;;;;;;3.80;3.20;;;;;;;;;;5076030;28;20958;-87
2023/06/13 07:57:32;;;;;;;3.50;3.20;;;;;;;;;;5076050;28;20801;-88
2023/06/13 08:00:00;;;;;;;3.27;3.00;;;;;;;;;;5075855;28;20489;-87
2023/06/13 08:02:27;;;;;;;3.47;3.17;;;;;;;;;;5075875;28;20446;-86
2023/06/13 08:04:54;;;;;;;3.67;3.37;;;;;;;;;;5075544;28;20802;-87
2023/06/13 08:07:22;;;;;;;3.30;3.00;;;;;;;;;;5076049;28;20467;-87
2023/06/13 08:09:49;;;;;;;3.50;3.00;;;;;;;;;;5075726;28;20456;-87
2023/06/13 08:12:16;;;;;;;5.13;4.40;;;;;;;;;;5075662;28;20464;-87
2023/06/13 08:14:44;;;;;;;3.93;3.50;;;;;;;;;;5075215;28;20450;-87
2023/06/13 08:17:11;;;;;;;3.83;3.23;;;;;;;;;;5075603;28;20546;-88
2023/06/13 08:19:38;;;;;;;4.00;3.70;;;;;;;;;;5075571;28;20481;-87
2023/06/13 08:22:05;;;;;;;4.17;3.77;;;;;;;;;;5075567;28;20498;-87
2023/06/13 08:24:34;;;;;;;3.53;3.33;;;;;;;;;;5075417;28;20437;-87
2023/06/13 08:27:02;;;;;;;7.03;3.60;;;;;;;;;;5075472;28;20439;-87
2023/06/13 08:29:29;;;;;;;3.80;3.40;;;;;;;;;;5075424;28;20444;-87
2023/06/13 08:31:56;;;;;;;3.40;3.20;;;;;;;;;;5075368;28;20851;-87
2023/06/13 08:34:23;;;;;;;4.10;3.50;;;;;;;;;;5075330;28;20488;-87
2023/06/13 08:36:50;;;;;;;3.30;3.10;;;;;;;;;;5075280;28;20466;-87
2023/06/13 08:39:18;;;;;;;4.03;3.63;;;;;;;;;;5075254;28;20844;-87
2023/06/13 08:41:46;;;;;;;3.47;3.17;;;;;;;;;;5075160;28;20442;-87
2023/06/13 08:44:13;;;;;;;5.07;3.20;;;;;;;;;;5074918;28;20449;-87
2023/06/13 08:46:40;;;;;;;3.97;3.67;;;;;;;;;;5075109;28;20960;-88
2023/06/13 08:49:08;;;;;;;4.57;3.33;;;;;;;;;;5075186;28;20446;-88
2023/06/13 08:51:35;;;;;;;3.87;3.57;;;;;;;;;;5074948;28;20439;-87
2023/06/13 08:54:03;;;;;;;5.13;2.90;;;;;;;;;;5075054;28;20439;-87
2023/06/13 08:56:34;;;;;;;4.07;3.70;;;;;;;;;;5074850;28;20473;-87
2023/06/13 08:59:07;;;;;;;3.23;3.03;;;;;;;;;;5074788;28;20481;-87
2023/06/13 09:01:34;;;;;;;3.70;3.30;;;;;;;;;;5074747;28;20479;-87
2023/06/13 09:04:02;;;;;;;3.80;3.53;;;;;;;;;;5074646;28;20482;-87
2023/06/13 09:06:31;;;;;;;4.07;3.70;;;;;;;;;;5074721;28;20481;-87
2023/06/13 09:08:59;;;;;;;3.33;3.03;;;;;;;;;;5074622;28;20446;-87
2023/06/13 09:11:27;;;;;;;3.97;3.60;;;;;;;;;;5074779;28;20495;-87
2023/06/13 09:13:57;;;;;;;3.60;3.23;;;;;;;;;;5074679;28;20991;-87
2023/06/13 09:16:25;;;;;;;3.33;3.13;;;;;;;;;;5074611;28;20789;-88
2023/06/13 09:18:53;;;;;;;2.90;2.70;;;;;;;;;;5074455;28;20480;-87
2023/06/13 09:21:21;;;;;;;3.40;3.10;;;;;;;;;;5074485;28;20439;-87
2023/06/13 09:23:48;;;;;;;3.13;2.93;;;;;;;;;;5074334;28;20480;-88
2023/06/13 09:26:16;;;;;;;3.57;3.27;;;;;;;;;;5073746;28;20939;-88
2023/06/13 09:28:43;;;;;;;3.30;2.77;;;;;;;;;;5074120;28;20441;-88
2023/06/13 09:31:11;;;;;;;3.60;3.30;;;;;;;;;;5074319;28;20449;-88
2023/06/13 09:33:40;;;;;;;3.23;3.00;;;;;;;;;;5074294;28;20449;-88
2023/06/13 09:36:07;;;;;;;3.70;3.40;;;;;;;;;;5074288;28;20883;-89
2023/06/13 09:38:35;;;;;;;3.43;3.13;;;;;;;;;;5073949;28;20852;-88
2023/06/13 09:41:03;;;;;;;3.57;3.27;;;;;;;;;;5074011;28;20449;-88
2023/06/13 09:43:30;;;;;;;3.77;3.47;;;;;;;;;;5073990;28;20452;-88
2023/06/13 09:45:58;;;;;;;3.10;2.90;;;;;;;;;;5073957;28;20437;-87
2023/06/13 09:48:25;;;;;;;3.40;3.20;;;;;;;;;;5073926;28;20444;-87
2023/06/13 09:50:54;;;;;;;3.40;3.20;;;;;;;;;;5073841;28;20439;-87
2023/06/13 09:53:22;;;;;;;3.10;2.83;;;;;;;;;;5073716;28;20445;-88
2023/06/13 09:55:49;;;;;;;3.20;3.00;;;;;;;;;;5073790;28;20776;-88
2023/06/13 09:58:17;;;;;;;3.20;2.90;;;;;;;;;;5073685;28;20442;-88
2023/06/13 10:00:44;;;;;;;3.40;2.80;;;;;;;;;;5073675;28;20489;-87
2023/06/13 10:03:11;;;;;;;3.60;3.40;;;;;;;;;;5073627;28;20524;-88
2023/06/13 10:05:39;;;;;;;3.27;3.07;;;;;;;;;;5073360;28;20472;-88
2023/06/13 10:08:07;;;;;;;3.50;3.20;;;;;;;;;;5073431;28;20461;-88
2023/06/13 10:10:34;;;;;;;3.70;3.33;;;;;;;;;;5073450;28;20447;-88
2023/06/13 10:13:04;;;;;;;3.10;2.90;;;;;;;;;;5073467;28;20448;-88
2023/06/13 10:15:34;;;;;;;2.70;2.50;;;;;;;;;;5073455;28;20441;-88
2023/06/13 10:18:04;;;;;;;3.60;3.30;;;;;;;;;;5073789;28;20440;-88
2023/06/13 10:20:31;;;;;;;3.60;3.30;;;;;;;;;;5073526;28;20553;-88
2023/06/13 10:22:58;;;;;;;3.27;2.97;;;;;;;;;;5073457;28;20437;-88
2023/06/13 10:25:28;;;;;;;2.70;2.50;;;;;;;;;;5073130;28;20525;-88
2023/06/13 10:27:57;;;;;;;3.60;3.30;;;;;;;;;;5073190;28;20940;-88
2023/06/13 10:30:36;;;;;;;2.83;2.63;;;;;;;;;;5073209;28;20929;-88
2023/06/13 10:33:17;;;;;;;3.00;2.80;;;;;;;;;;5073144;28;20450;-87
2023/06/13 10:35:49;;;;;;;2.50;2.30;;;;;;;;;;5073262;28;20446;-87
2023/06/13 10:38:33;;;;;;;3.10;2.80;;;;;;;;;;5073095;28;20455;-87
2023/06/13 10:41:15;;;;;;;3.40;3.20;;;;;;;;;;5073202;28;20455;-87
2023/06/13 10:43:49;;;;;;;3.10;2.90;;;;;;;;;;5070068;28;20446;-86
2023/06/13 10:46:16;;;;;;;2.33;2.13;;;;;;;;;;5073157;28;20517;-86
2023/06/13 10:48:48;;;;;;;3.70;3.40;;;;;;;;;;5073150;28;20440;-88
2023/06/13 10:51:19;;;;;;;2.43;2.23;;;;;;;;;;5073086;28;20798;-86
2023/06/13 10:53:47;;;;;;;3.43;3.13;;;;;;;;;;5073094;28;20461;-87
2023/06/13 10:56:14;;;;;;;3.17;2.97;;;;;;;;;;5072964;28;20884;-87
2023/06/13 10:58:41;;;;;;;3.43;3.23;;;;;;;;;;5072846;28;20449;-88
2023/06/13 11:01:27;;;;;;;3.30;3.10;;;;;;;;;;5072922;28;20503;-88
2023/06/13 11:04:04;;;;;;;3.63;3.33;;;;;;;;;;5072787;28;20433;-88
2023/06/13 11:06:32;;;;;;;3.13;2.83;;;;;;;;;;5072673;28;20482;-88
2023/06/13 11:09:17;;;;;;;3.00;2.80;;;;;;;;;;5072754;28;20925;-87
2023/06/13 11:11:45;;;;;;;3.10;2.90;;;;;;;;;;5072897;28;20432;-88
2023/06/13 11:14:12;;;;;;;3.20;3.00;;;;;;;;;;5072831;28;20441;-89
2023/06/13 11:16:40;;;;;;;3.13;2.90;;;25.30;96.60;;;;;;5072819;28;20520;-88
2023/06/13 11:19:13;;;;;;;3.40;3.10;;;24.60;90.80;;;;;;5072785;28;20570;-88
2023/06/13 11:21:45;;;;;;;3.30;3.10;;;24.80;91.10;;;;;;5072689;28;20775;-88
2023/06/13 11:24:15;;;;;;;2.93;2.73;;;24.50;91.50;;;;;;5072603;28;20421;-88
2023/06/13 11:26:42;;;;;;;3.00;2.80;;;24.50;91.80;;;;;;5072719;28;20827;-88
2023/06/13 11:29:12;;;;;;;3.27;2.97;;;24.50;92.10;;;;;;5072642;28;20445;-88
2023/06/13 11:31:40;;;;;;;3.60;3.30;;;24.50;91.90;;;;;;5072536;28;20441;-88
2023/06/13 11:34:18;;;;;;;3.67;3.37;;;24.50;92.30;;;;;;5072497;28;20442;-88
2023/06/13 11:36:46;;;;;;;2.90;2.70;;;24.50;92.60;;;;;;5072628;28;20487;-88
2023/06/13 11:39:16;;;;;;;2.80;2.60;;;24.50;92.70;;;;;;5072366;28;20477;-89
2023/06/13 11:41:44;;;;;;;2.60;2.40;;;24.50;92.50;;;;;;5072634;28;20449;-89
2023/06/13 11:44:13;;;;;;;3.30;3.10;;;24.50;92.80;;;;;;5072452;28;20446;-88
2023/06/13 11:46:44;;;;;;;2.97;2.77;;;24.50;92.80;;;;;;5072652;28;20447;-88
2023/06/13 11:49:15;;;;;;;3.67;2.93;;;24.50;93.40;;;;;;5072522;28;20524;-88
2023/06/13 11:51:42;;;;;;;2.80;2.60;;;24.50;93.70;;;;;;5075791;28;20450;-88
2023/06/13 11:54:10;;;;;;;3.10;2.80;;;24.50;93.90;;;;;;5076142;28;20522;-88
2023/06/13 11:56:40;;;;;;;2.87;2.63;;;24.50;93.90;;;;;;5075955;28;20432;-88
2023/06/13 11:59:15;;;;;;;4.03;3.30;;;24.70;93.70;;;;;;5075988;28;20435;-88
2023/06/13 12:01:42;;;;;;;2.90;2.70;;;24.50;94.40;;;;;;5075868;28;20442;-88
2023/06/13 12:04:10;;;;;;;3.10;2.80;;;24.50;94.00;;;;;;5075893;28;20441;-88
2023/06/13 12:06:40;;;;;;;2.67;2.47;;;24.50;93.60;;;;;;5075645;28;21034;-88
2023/06/13 12:09:07;;;;;;;3.33;3.03;;;24.50;93.80;;;;;;5075787;28;20441;-88
2023/06/13 12:11:34;;;;;;;3.00;2.80;;;24.50;94.20;;;;;;5075834;28;20482;-88
2023/06/13 12:14:02;;;;;;;5.23;3.00;;;24.50;94.30;;;;;;5075964;28;20769;-88
2023/06/13 12:16:30;;;;;;;2.57;2.37;;;24.50;94.10;;;;;;5075781;28;20432;-88
2023/06/13 12:18:59;;;;;;;3.17;2.97;;;24.50;94.50;;;;;;5075691;28;20439;-88
2023/06/13 12:21:27;;;;;;;3.43;3.10;;;24.50;93.60;;;;;;5075656;28;20495;-88
2023/06/13 12:23:57;;;;;;;3.03;2.83;;;24.80;93.60;;;;;;5075527;28;20449;-88
2023/06/13 12:26:24;;;;;;;3.40;3.10;;;24.50;93.80;;;;;;5075744;28;20437;-88
2023/06/13 12:28:52;;;;;;;3.30;3.00;;;24.60;93.50;;;;;;5075380;28;20447;-88
2023/06/13 12:31:29;;;;;;;2.83;2.63;;;24.50;93.80;;;;;;5075539;28;20450;-89
2023/06/13 12:34:07;;;;;;;2.50;2.30;;;24.60;93.50;;;;;;5075551;28;20444;-88
2023/06/13 12:36:40;;;;;;;3.03;2.83;;;24.60;93.90;;;;;;5075303;28;20489;-89
2023/06/13 12:39:11;;;;;;;2.43;2.27;;;24.60;93.80;;;;;;5075249;28;20574;-88
2023/06/13 12:41:38;;;;;;;2.77;2.57;;;24.60;93.90;;;;;;5075180;28;20433;-88
2023/06/13 12:44:07;;;;;;;2.80;2.60;;;24.60;95.10;;;;;;5075236;28;20436;-88
2023/06/13 12:46:38;;;;;;;3.53;3.27;;;24.60;94.50;;;;;;5075136;28;20486;-88
2023/06/13 12:49:07;;;;;;;3.53;3.20;;;24.60;93.90;;;;;;5075187;28;20914;-88
2023/06/13 12:51:34;;;;;;;3.20;3.00;;;24.60;94.00;;;;;;5075102;28;20452;-88
2023/06/13 12:54:16;;;;;;;2.40;2.30;;;24.70;94.20;;;;;;5075170;28;20443;-88
2023/06/13 12:56:51;;;;;;;2.90;2.70;;;24.70;93.80;;;;;;5075083;28;20427;-88
2023/06/13 12:59:18;;;;;;;2.83;2.63;;;24.60;94.20;;;;;;5075043;28;20530;-88
2023/06/13 13:01:45;;;;;;;2.73;2.53;;;24.60;94.30;;;;;;5073743;28;20442;-89
2023/06/13 13:04:12;;;;;;;2.70;2.50;;;24.60;94.50;;;;;;5074996;28;20454;-88
2023/06/13 13:06:41;;;;;;;2.70;2.50;;;24.60;94.80;;;;;;5074609;28;20474;-88
2023/06/13 13:09:08;;;;;;;2.67;2.47;;;24.60;95.10;;;;;;5074781;28;20443;-88
2023/06/13 13:11:36;;;;;;;2.67;2.43;;;24.60;95.40;;;;;;5074635;28;20442;-88
2023/06/13 13:14:03;;;;;;;3.03;2.83;;;24.70;94.20;;;;;;5074856;28;20508;-88
2023/06/13 13:16:30;;;;;;;3.10;2.90;;;24.70;93.80;;;;;;5074609;28;20444;-88
2023/06/13 13:18:57;;;;;;;2.63;2.43;;;24.70;93.60;;;;;;5074600;28;20446;-88
2023/06/13 13:21:24;;;;;;;2.87;2.67;;;24.60;93.30;;;;;;5074477;28;20483;-89
2023/06/13 13:23:51;;;;;;;2.20;2.10;;;24.70;93.60;;;;;;5074680;28;20450;-88
2023/06/13 13:26:17;;;;;;;2.23;2.13;;;24.70;93.80;;;;;;5074537;28;20444;-88
2023/06/13 13:28:46;;;;;;;2.90;2.70;;;24.70;93.60;;;;;;5074316;28;20447;-88
2023/06/13 13:31:12;;;;;;;2.47;2.30;;;24.70;93.10;;;;;;5074156;28;20442;-88
2023/06/13 13:33:39;;;;;;;3.10;2.90;;;24.70;93.40;;;;;;5074296;28;20910;-88
2023/06/13 13:36:06;;;;;;;2.70;2.50;;;24.70;93.70;;;;;;5074099;28;20520;-88
2023/06/13 13:38:33;;;;;;;2.20;2.10;;;24.70;93.30;;;;;;5074001;28;20439;-88
2023/06/13 13:41:00;;;;;;;2.63;2.43;;;24.70;93.30;;;;;;5073894;28;20565;-88
2023/06/13 13:43:27;;;;;;;2.97;2.77;;;24.70;93.40;;;;;;5073993;28;20804;-88
2023/06/13 13:45:55;;;;;;;2.40;2.20;;;24.70;93.50;;;;;;5073849;28;20491;-88
2023/06/13 13:48:22;;;;;;;2.80;2.60;;;24.70;93.40;;;;;;5073933;28;20933;-88
2023/06/13 13:50:49;;;;;;;2.50;2.30;;;24.70;93.70;;;;;;5073901;28;20475;-88
2023/06/13 13:53:17;;;;;;;2.97;2.77;;;24.70;93.70;;;;;;5073860;28;20444;-88
2023/06/13 13:55:44;;;;;;;2.33;2.13;;;24.70;93.80;;;;;;5073809;28;20448;-88
2023/06/13 13:58:11;;;;;;;3.30;3.00;;;24.70;93.90;;;;;;5073932;28;20444;-88
2023/06/13 14:00:38;;;;;;;4.80;2.20;;;24.70;93.80;;;;;;5073494;28;20476;-88
2023/06/13 14:03:06;;;;;;;2.30;2.13;;;24.70;94.00;;;;;;5073643;28;20450;-87
2023/06/13 14:05:33;;;;;;;2.50;2.30;;;24.70;94.10;;;;;;5073239;28;20474;-88
2023/06/13 14:07:59;;;;;;;2.90;2.70;;;24.70;93.40;;;;;;5073380;28;20465;-88